createdAt,value
2019-03-03T00:01:08.298Z,88.80
2019-03-03T00:03:43.354Z,88.70
2019-03-03T00:06:18.785Z,88.60
2019-03-03T00:08:53.839Z,88.80
2019-03-03T00:11:28.853Z,88.90
2019-03-03T00:14:04.195Z,88.90
2019-03-03T00:16:39.237Z,89.00
2019-03-03T00:19:14.320Z,89.60
2019-03-03T00:21:51.042Z,88.80
2019-03-03T00:24:28.962Z,89.00
2019-03-03T00:27:04.125Z,89.00
2019-03-03T00:29:39.482Z,89.00
2019-03-03T00:32:14.519Z,88.90
2019-03-03T00:34:49.616Z,88.90
2019-03-03T00:37:26.367Z,88.90
2019-03-03T00:40:03.058Z,88.70
2019-03-03T00:42:40.126Z,88.90
2019-03-03T00:45:19.922Z,89.30
2019-03-03T00:48:00.753Z,89.30
2019-03-03T00:50:40.538Z,89.40
2019-03-03T00:53:17.303Z,89.40
2019-03-03T00:56:00.580Z,89.50
2019-03-03T00:58:43.731Z,89.80
2019-03-03T01:01:23.939Z,89.90
2019-03-03T01:04:13.299Z,89.70
2019-03-03T01:06:49.975Z,89.90
2019-03-03T01:09:30.001Z,89.80
2019-03-03T01:12:23.329Z,90.20
2019-03-03T01:15:09.428Z,90.00
2019-03-03T01:17:49.399Z,90.10
2019-03-03T01:20:39.881Z,90.10
2019-03-03T01:23:36.325Z,90.10
2019-03-03T01:26:12.131Z,90.00
2019-03-03T01:28:47.151Z,90.60
2019-03-03T01:31:22.213Z,91.10
2019-03-03T01:33:58.881Z,91.50
2019-03-03T01:36:34.279Z,92.00
2019-03-03T01:39:09.668Z,92.30
2019-03-03T01:41:45.054Z,92.60
2019-03-03T01:44:20.608Z,92.90
2019-03-03T01:46:55.942Z,93.00
2019-03-03T01:49:31.237Z,93.30
2019-03-03T01:52:06.336Z,93.50
2019-03-03T01:54:42.316Z,93.70
2019-03-03T01:57:17.841Z,93.80
2019-03-03T01:59:52.862Z,93.80
2019-03-03T02:02:28.211Z,93.90
2019-03-03T02:05:03.299Z,94.10
2019-03-03T02:07:38.529Z,94.20
2019-03-03T02:10:15.498Z,94.60
2019-03-03T02:12:50.588Z,94.60
2019-03-03T02:15:25.678Z,94.50
2019-03-03T02:18:00.814Z,94.50
2019-03-03T02:20:35.935Z,94.60
2019-03-03T02:23:10.990Z,94.60
2019-03-03T02:25:46.095Z,94.70
2019-03-03T02:28:21.534Z,94.80
2019-03-03T02:30:56.611Z,94.90
2019-03-03T02:33:31.705Z,94.90
2019-03-03T02:36:06.778Z,95.00
2019-03-03T02:38:42.392Z,95.00
2019-03-03T02:41:18.242Z,95.00
2019-03-03T02:43:53.290Z,95.00
2019-03-03T02:46:28.317Z,95.00
2019-03-03T02:49:03.435Z,95.00
2019-03-03T02:51:38.788Z,95.10
2019-03-03T02:54:14.019Z,95.20
2019-03-03T02:56:50.024Z,95.60
2019-03-03T02:59:25.336Z,95.80
2019-03-03T03:02:01.197Z,96.00
2019-03-03T03:04:36.671Z,96.30
2019-03-03T03:07:13.445Z,96.40
2019-03-03T03:09:56.190Z,96.60
2019-03-03T03:12:50.422Z,96.60
2019-03-03T03:15:27.096Z,96.70
2019-03-03T03:18:04.671Z,96.80
2019-03-03T03:20:45.144Z,96.90
2019-03-03T03:23:21.829Z,96.90
2019-03-03T03:25:58.491Z,97.00
2019-03-03T03:28:48.404Z,97.10
2019-03-03T03:31:25.328Z,97.20
2019-03-03T03:34:17.852Z,97.20
2019-03-03T03:37:01.129Z,97.20
2019-03-03T03:39:56.282Z,97.20
2019-03-03T03:42:39.519Z,97.20
2019-03-03T03:45:16.202Z,97.20
2019-03-03T03:47:58.798Z,97.50
2019-03-03T03:50:53.338Z,97.30
2019-03-03T03:53:47.666Z,97.30
2019-03-03T03:56:33.509Z,97.30
2019-03-03T03:59:13.732Z,97.20
2019-03-03T04:01:50.854Z,97.40
2019-03-03T04:04:30.525Z,97.30
2019-03-03T04:07:07.212Z,97.30
2019-03-03T04:09:44.365Z,97.30
2019-03-03T04:12:21.146Z,97.40
2019-03-03T04:14:58.171Z,97.40
2019-03-03T04:17:54.285Z,97.50
2019-03-03T04:21:17.921Z,97.40
2019-03-03T04:24:01.606Z,97.30
2019-03-03T04:26:47.806Z,97.20
2019-03-03T04:29:24.500Z,97.10
2019-03-03T04:32:07.637Z,96.90
2019-03-03T04:34:44.649Z,96.80
2019-03-03T04:37:34.376Z,96.70
2019-03-03T04:40:18.003Z,96.60
2019-03-03T04:43:12.566Z,96.70
2019-03-03T04:45:49.248Z,96.40
2019-03-03T04:48:29.053Z,96.20
2019-03-03T04:54:44.157Z,96.10
2019-03-03T04:57:24.325Z,96.00
2019-03-03T05:00:07.357Z,95.80
2019-03-03T05:03:01.571Z,95.90
2019-03-03T05:05:44.962Z,95.80
2019-03-03T05:08:24.473Z,95.80
2019-03-03T05:11:18.713Z,95.70
2019-03-03T05:13:55.477Z,95.60
2019-03-03T05:16:35.324Z,95.50
2019-03-03T05:19:10.647Z,95.40
2019-03-03T05:21:45.703Z,95.40
2019-03-03T05:24:21.132Z,95.40
2019-03-03T05:26:56.274Z,95.30
2019-03-03T05:29:31.373Z,95.20
2019-03-03T05:32:06.752Z,95.00
2019-03-03T05:34:42.089Z,95.20
2019-03-03T05:37:17.428Z,94.90
2019-03-03T05:39:52.773Z,94.90
2019-03-03T05:42:28.152Z,94.90
2019-03-03T05:45:04.829Z,94.80
2019-03-03T05:47:40.130Z,94.80
2019-03-03T05:50:15.181Z,94.70
2019-03-03T05:52:50.218Z,94.70
2019-03-03T05:55:25.262Z,94.70
2019-03-03T05:58:00.701Z,94.70
2019-03-03T06:00:35.794Z,94.60
2019-03-03T06:03:10.909Z,94.60
2019-03-03T06:05:47.456Z,94.60
2019-03-03T06:08:22.739Z,94.60
2019-03-03T06:10:57.847Z,94.60
2019-03-03T06:13:33.246Z,94.60
2019-03-03T06:16:08.267Z,94.60
2019-03-03T06:18:43.329Z,94.50
2019-03-03T06:21:19.450Z,94.50
2019-03-03T06:23:54.965Z,94.30
2019-03-03T06:26:29.987Z,94.30
2019-03-03T06:29:05.154Z,94.30
2019-03-03T06:31:40.566Z,94.30
2019-03-03T06:34:15.578Z,94.10
2019-03-03T06:36:51.023Z,94.10
2019-03-03T06:39:29.046Z,94.00
2019-03-03T06:42:04.378Z,93.90
2019-03-03T06:44:39.534Z,93.80
2019-03-03T06:47:14.960Z,94.00
2019-03-03T06:49:50.310Z,93.60
2019-03-03T06:52:25.848Z,93.60
2019-03-03T06:55:03.104Z,93.40
2019-03-03T06:57:38.245Z,93.20
2019-03-03T07:00:16.343Z,93.10
2019-03-03T07:02:51.420Z,92.90
2019-03-03T07:05:26.597Z,92.80
2019-03-03T07:08:01.730Z,92.60
2019-03-03T07:10:36.782Z,92.50
2019-03-03T07:13:12.169Z,92.40
2019-03-03T07:15:48.462Z,92.10
2019-03-03T07:18:23.509Z,92.00
2019-03-03T07:20:58.988Z,91.80
2019-03-03T07:23:34.030Z,91.50
2019-03-03T07:26:09.859Z,91.40
2019-03-03T07:28:44.922Z,91.00
2019-03-03T07:31:20.874Z,90.90
2019-03-03T07:33:56.826Z,90.60
2019-03-03T07:36:31.890Z,90.40
2019-03-03T07:39:16.041Z,90.20
2019-03-03T07:41:51.094Z,90.10
2019-03-03T07:44:26.441Z,89.40
2019-03-03T07:47:01.575Z,88.90
2019-03-03T07:49:36.904Z,88.20
2019-03-03T07:52:11.979Z,88.00
2019-03-03T07:54:47.010Z,87.40
2019-03-03T07:57:22.635Z,86.60
2019-03-03T07:59:57.684Z,86.30
2019-03-03T08:02:32.798Z,85.90
2019-03-03T08:05:09.393Z,85.70
2019-03-03T08:07:44.510Z,84.70
2019-03-03T08:10:20.629Z,84.50
2019-03-03T08:12:55.664Z,83.80
2019-03-03T08:15:31.044Z,83.50
2019-03-03T08:18:06.670Z,83.10
2019-03-03T08:20:43.673Z,82.30
2019-03-03T08:23:19.626Z,81.80
2019-03-03T08:25:54.970Z,80.20
2019-03-03T08:28:30.018Z,79.70
2019-03-03T08:31:05.154Z,79.10
2019-03-03T08:33:40.283Z,79.00
2019-03-03T08:36:15.318Z,79.40
2019-03-03T08:38:59.286Z,79.00
2019-03-03T08:41:56.025Z,78.40
2019-03-03T08:44:39.179Z,77.80
2019-03-03T08:47:35.986Z,76.80
2019-03-03T08:50:15.243Z,76.20
2019-03-03T08:53:09.514Z,76.00
2019-03-03T08:56:03.855Z,76.40
2019-03-03T08:58:41.200Z,76.20
2019-03-03T09:01:18.780Z,76.60
2019-03-03T09:03:58.723Z,76.70
2019-03-03T09:06:38.542Z,76.60
2019-03-03T09:09:32.429Z,75.60
2019-03-03T09:12:30.223Z,76.90
2019-03-03T09:15:27.786Z,77.50
2019-03-03T09:18:08.790Z,77.80
2019-03-03T09:20:45.890Z,78.40
2019-03-03T09:23:26.030Z,78.00
2019-03-03T09:26:16.096Z,78.60
2019-03-03T09:28:53.083Z,79.60
2019-03-03T09:31:36.493Z,79.30
2019-03-03T09:34:19.341Z,79.30
2019-03-03T09:36:56.039Z,79.00
2019-03-03T09:39:32.706Z,78.10
2019-03-03T09:42:19.682Z,78.00
2019-03-03T09:44:56.679Z,77.60
2019-03-03T09:47:33.376Z,76.80
2019-03-03T09:50:19.127Z,76.80
2019-03-03T09:53:15.510Z,76.30
2019-03-03T09:55:55.029Z,75.70
2019-03-03T09:58:50.435Z,75.80
2019-03-03T10:01:45.128Z,75.30
2019-03-03T10:04:40.373Z,75.20
2019-03-03T10:07:17.179Z,75.00
2019-03-03T10:09:59.879Z,74.90
2019-03-03T10:12:54.508Z,75.30
2019-03-03T10:15:34.863Z,75.10
2019-03-03T10:18:14.518Z,75.10
2019-03-03T10:21:03.106Z,74.60
2019-03-03T10:23:45.688Z,74.30
2019-03-03T10:26:29.432Z,74.00
2019-03-03T10:29:24.019Z,74.00
2019-03-03T10:32:15.107Z,74.00
2019-03-03T10:34:54.950Z,75.00
2019-03-03T10:37:42.361Z,75.70
2019-03-03T10:40:19.898Z,76.10
2019-03-03T10:42:56.834Z,76.90
2019-03-03T10:45:36.366Z,76.80
2019-03-03T10:48:29.599Z,76.40
2019-03-03T10:51:09.007Z,76.60
2019-03-03T10:53:46.026Z,76.60
2019-03-03T10:56:29.930Z,76.70
2019-03-03T10:59:09.479Z,77.60
2019-03-03T11:01:46.420Z,78.10
2019-03-03T11:04:25.873Z,78.40
2019-03-03T11:07:04.160Z,78.60
2019-03-03T11:10:00.693Z,78.80
2019-03-03T11:12:43.785Z,78.00
2019-03-03T11:15:38.357Z,77.70
2019-03-03T11:18:33.005Z,77.50
2019-03-03T11:21:27.908Z,76.50
2019-03-03T11:24:10.787Z,76.60
2019-03-03T11:27:00.097Z,76.40
2019-03-03T11:29:50.147Z,76.70
2019-03-03T11:32:26.889Z,76.40
2019-03-03T11:35:21.502Z,76.50
2019-03-03T11:37:58.311Z,76.20
2019-03-03T11:40:35.309Z,75.80
2019-03-03T11:43:25.158Z,75.50
2019-03-03T11:46:19.479Z,75.50
2019-03-03T11:48:56.970Z,74.80
2019-03-03T11:51:51.207Z,75.20
2019-03-03T11:54:31.990Z,75.90
2019-03-03T11:57:18.287Z,75.80
2019-03-03T11:59:55.065Z,75.60
2019-03-03T12:02:38.724Z,75.70
2019-03-03T12:05:31.781Z,76.40
2019-03-03T12:08:11.307Z,77.40
2019-03-03T12:10:48.014Z,78.30
2019-03-03T12:13:25.159Z,78.80
2019-03-03T12:16:12.081Z,79.20
2019-03-03T12:19:03.601Z,79.80
2019-03-03T12:21:43.429Z,81.00
2019-03-03T12:24:35.094Z,82.00
2019-03-03T12:27:28.110Z,82.30
2019-03-03T12:30:04.803Z,82.80
2019-03-03T12:32:41.702Z,83.10
2019-03-03T12:35:18.495Z,83.50
2019-03-03T12:37:58.288Z,83.30
2019-03-03T12:40:35.283Z,84.00
2019-03-03T12:43:22.490Z,83.40
2019-03-03T12:46:10.010Z,83.40
2019-03-03T12:48:47.647Z,83.50
2019-03-03T12:51:30.818Z,82.60
2019-03-03T12:54:14.867Z,82.80
2019-03-03T12:56:51.887Z,82.90
2019-03-03T12:59:31.396Z,82.80
2019-03-03T13:02:24.577Z,82.30
2019-03-03T13:05:06.354Z,82.30
2019-03-03T13:08:00.413Z,82.10
2019-03-03T13:10:40.545Z,82.20
2019-03-03T13:13:17.587Z,82.30
2019-03-03T13:16:07.719Z,82.10
2019-03-03T13:18:50.526Z,82.70
2019-03-03T13:21:40.122Z,83.80
2019-03-03T13:24:17.884Z,83.60
2019-03-03T13:26:54.678Z,84.00
2019-03-03T13:29:48.920Z,84.30
2019-03-03T13:32:29.307Z,84.60
2019-03-03T13:35:18.142Z,84.20
2019-03-03T13:38:01.116Z,84.40
2019-03-03T13:40:37.819Z,84.30
2019-03-03T13:43:13.886Z,84.10
2019-03-03T13:45:48.999Z,83.80
2019-03-03T13:48:24.050Z,83.00
2019-03-03T13:50:59.155Z,84.00
2019-03-03T13:53:34.518Z,83.00
2019-03-03T13:56:10.107Z,82.80
2019-03-03T13:58:45.223Z,82.40
2019-03-03T14:01:20.428Z,82.10
2019-03-03T14:03:56.167Z,81.70
2019-03-03T14:06:31.189Z,81.20
2019-03-03T14:09:07.882Z,81.20
2019-03-03T14:11:44.077Z,80.60
2019-03-03T14:14:19.699Z,80.70
2019-03-03T14:16:54.730Z,79.90
2019-03-03T14:19:30.245Z,80.00
2019-03-03T14:22:05.415Z,79.70
2019-03-03T14:24:40.451Z,79.50
2019-03-03T14:27:16.165Z,79.50
2019-03-03T14:29:51.414Z,79.50
2019-03-03T14:32:26.539Z,79.70
2019-03-03T14:35:01.875Z,80.70
2019-03-03T14:37:38.131Z,81.40
2019-03-03T14:40:18.292Z,81.90
2019-03-03T14:42:53.312Z,82.10
2019-03-03T14:45:28.704Z,82.50
2019-03-03T14:48:03.720Z,83.20
2019-03-03T14:50:39.998Z,84.50
2019-03-03T14:53:15.386Z,85.00
2019-03-03T14:55:50.444Z,85.10
2019-03-03T14:58:25.754Z,85.80
2019-03-03T15:01:00.808Z,86.40
2019-03-03T15:03:35.962Z,87.40
2019-03-03T15:06:12.977Z,88.00
2019-03-03T15:08:48.316Z,88.50
2019-03-03T15:11:23.377Z,89.60
2019-03-03T15:13:58.423Z,90.30
2019-03-03T15:16:33.471Z,90.80
2019-03-03T15:19:08.628Z,91.20
2019-03-03T15:21:46.238Z,91.60
2019-03-03T15:24:21.412Z,92.10
2019-03-03T15:26:57.842Z,92.40
2019-03-03T15:29:33.218Z,92.70
2019-03-03T15:32:08.267Z,93.00
2019-03-03T15:34:43.313Z,93.20
2019-03-03T15:37:18.905Z,93.50
2019-03-03T15:39:54.073Z,93.80
2019-03-03T15:42:29.129Z,94.00
2019-03-03T15:45:07.393Z,93.90
2019-03-03T15:47:42.452Z,93.90
2019-03-03T15:50:19.049Z,93.90
2019-03-03T15:52:54.754Z,93.80
2019-03-03T15:55:31.947Z,93.90
2019-03-03T15:58:08.102Z,94.00
2019-03-03T16:00:43.307Z,94.20
2019-03-03T16:03:18.403Z,94.70
2019-03-03T16:05:54.253Z,94.90
2019-03-03T16:08:29.673Z,95.00
2019-03-03T16:11:04.722Z,95.20
2019-03-03T16:13:41.084Z,95.30
2019-03-03T16:16:16.520Z,95.40
2019-03-03T16:18:52.202Z,95.50
2019-03-03T16:21:27.460Z,95.50
2019-03-03T16:24:02.500Z,95.60
2019-03-03T16:26:37.549Z,95.70
2019-03-03T16:29:12.647Z,95.70
2019-03-03T16:31:47.763Z,95.90
2019-03-03T16:34:22.790Z,95.90
2019-03-03T16:36:58.238Z,96.00
2019-03-03T16:39:33.263Z,96.10
2019-03-03T16:42:08.631Z,96.10
2019-03-03T16:44:43.658Z,96.20
2019-03-03T16:47:19.683Z,96.30
2019-03-03T16:49:54.996Z,96.30
2019-03-03T16:52:30.071Z,96.50
2019-03-03T16:55:08.242Z,96.50
2019-03-03T16:57:44.684Z,96.60
2019-03-03T17:00:25.008Z,96.60
2019-03-03T17:03:00.109Z,96.50
2019-03-03T17:05:35.226Z,96.40
2019-03-03T17:08:10.645Z,96.40
2019-03-03T17:10:45.675Z,96.40
2019-03-03T17:13:21.767Z,96.30
2019-03-03T17:15:58.781Z,96.30
2019-03-03T17:18:34.036Z,96.20
2019-03-03T17:21:10.388Z,96.20
2019-03-03T17:23:45.786Z,96.20
2019-03-03T17:26:21.251Z,96.10
2019-03-03T17:28:56.356Z,96.10
2019-03-03T17:31:31.468Z,96.10
2019-03-03T17:34:13.124Z,96.10
2019-03-03T17:36:43.702Z,96.10
2019-03-03T17:39:19.260Z,96.10
2019-03-03T17:41:54.342Z,96.10
2019-03-03T17:44:29.368Z,96.20
2019-03-03T17:47:04.391Z,96.10
2019-03-03T17:49:39.435Z,96.30
2019-03-03T17:52:14.759Z,95.90
2019-03-03T17:54:50.180Z,95.90
2019-03-03T17:57:25.274Z,95.90
2019-03-03T18:00:01.003Z,95.90
2019-03-03T18:02:37.753Z,95.80
2019-03-03T18:05:12.865Z,95.80
2019-03-03T18:07:48.633Z,95.80
2019-03-03T18:10:23.774Z,95.70
2019-03-03T18:12:59.257Z,95.70
2019-03-03T18:15:34.389Z,95.70
2019-03-03T18:18:09.820Z,95.60
2019-03-03T18:20:45.173Z,95.50
2019-03-03T18:23:21.739Z,95.50
2019-03-03T18:25:56.820Z,95.40
2019-03-03T18:28:32.198Z,95.40
2019-03-03T18:31:07.638Z,95.30
2019-03-03T18:33:43.291Z,95.20
2019-03-03T18:36:19.570Z,95.20
2019-03-03T18:38:54.942Z,95.10
2019-03-03T18:41:30.473Z,95.10
2019-03-03T18:44:05.814Z,95.10
2019-03-03T18:46:41.738Z,94.90
2019-03-03T18:49:17.034Z,94.90
2019-03-03T18:51:52.149Z,94.60
2019-03-03T18:54:29.343Z,94.90
2019-03-03T18:57:04.873Z,94.80
2019-03-03T18:59:40.350Z,94.90
2019-03-03T19:02:17.103Z,94.90
2019-03-03T19:04:52.237Z,94.90
2019-03-03T19:07:27.363Z,94.80
2019-03-03T19:10:02.468Z,94.80
2019-03-03T19:12:39.485Z,94.70
2019-03-03T19:15:20.678Z,94.70
2019-03-03T19:17:55.727Z,94.60
2019-03-03T19:20:31.171Z,94.50
2019-03-03T19:23:06.269Z,94.50
2019-03-03T19:25:41.694Z,94.40
2019-03-03T19:28:16.741Z,94.40
2019-03-03T19:30:52.814Z,94.30
2019-03-03T19:33:40.534Z,94.30
2019-03-03T19:36:16.011Z,94.10
2019-03-03T19:38:51.303Z,94.40
2019-03-03T19:41:26.733Z,94.10
2019-03-03T19:44:01.934Z,93.90
2019-03-03T19:46:37.535Z,93.90
2019-03-03T19:49:12.715Z,93.80
2019-03-03T19:51:48.228Z,93.80
2019-03-03T19:54:23.870Z,93.60
2019-03-03T19:56:59.897Z,93.60
2019-03-03T19:59:35.511Z,93.60
2019-03-03T20:02:11.254Z,93.60
2019-03-03T20:04:46.480Z,93.40
2019-03-03T20:07:21.752Z,93.30
2019-03-03T20:09:57.976Z,93.30
2019-03-03T20:12:33.494Z,93.20
2019-03-03T20:15:11.067Z,93.10
2019-03-03T20:17:47.400Z,93.20
2019-03-03T20:20:23.046Z,92.90
2019-03-03T20:22:59.544Z,92.80
2019-03-03T20:25:34.662Z,92.80
2019-03-03T20:28:10.213Z,92.80
2019-03-03T20:30:46.410Z,92.70
2019-03-03T20:33:22.755Z,92.70
2019-03-03T20:35:58.330Z,92.70
2019-03-03T20:38:33.461Z,92.60
2019-03-03T20:41:08.607Z,92.60
2019-03-03T20:43:43.785Z,92.50
2019-03-03T20:46:20.148Z,92.40
2019-03-03T20:48:55.657Z,92.60
2019-03-03T20:51:33.145Z,92.40
2019-03-03T20:54:09.694Z,92.20
2019-03-03T20:56:44.743Z,91.70
2019-03-03T20:59:19.892Z,92.00
2019-03-03T21:01:55.017Z,91.70
2019-03-03T21:04:30.130Z,91.60
2019-03-03T21:07:05.600Z,91.60
2019-03-03T21:09:42.160Z,91.40
2019-03-03T21:12:18.511Z,91.80
2019-03-03T21:14:54.403Z,91.80
2019-03-03T21:17:29.731Z,91.20
2019-03-03T21:20:08.246Z,91.20
2019-03-03T21:22:43.374Z,91.20
2019-03-03T21:25:19.624Z,91.10
2019-03-03T21:27:55.568Z,91.00
2019-03-03T21:30:31.848Z,90.80
2019-03-03T21:33:07.134Z,90.90
2019-03-03T21:35:42.536Z,90.80
2019-03-03T21:38:17.576Z,90.80
2019-03-03T21:40:57.112Z,90.70
2019-03-03T21:43:32.165Z,90.70
2019-03-03T21:46:07.763Z,90.60
2019-03-03T21:48:42.800Z,90.50
2019-03-03T21:51:18.111Z,90.90
2019-03-03T21:53:53.177Z,90.50
2019-03-03T21:56:28.287Z,90.20
2019-03-03T21:59:03.458Z,90.10
2019-03-03T22:01:38.770Z,90.20
2019-03-03T22:04:13.919Z,90.00
2019-03-03T22:06:49.089Z,89.80
2019-03-03T22:09:31.913Z,89.70
2019-03-03T22:12:10.240Z,89.60
2019-03-03T22:14:45.372Z,89.80
2019-03-03T22:17:20.488Z,90.00
2019-03-03T22:19:55.913Z,90.20
2019-03-03T22:22:31.239Z,90.40
2019-03-03T22:25:09.369Z,90.40
2019-03-03T22:27:45.278Z,90.30
2019-03-03T22:30:20.738Z,90.50
2019-03-03T22:32:56.044Z,90.60
2019-03-03T22:35:31.141Z,90.70
2019-03-03T22:38:06.250Z,90.80
2019-03-03T22:40:42.076Z,90.80
2019-03-03T22:43:17.521Z,90.90
2019-03-03T22:45:52.862Z,91.00
2019-03-03T22:48:28.542Z,91.70
2019-03-03T22:51:03.865Z,91.70
2019-03-03T22:53:39.028Z,91.80
2019-03-03T22:56:14.442Z,92.00
2019-03-03T22:58:49.985Z,92.00
2019-03-03T23:01:25.866Z,92.00
2019-03-03T23:04:36.306Z,92.00
2019-03-03T23:07:14.782Z,92.00
2019-03-03T23:09:56.606Z,92.20
2019-03-03T23:13:01.343Z,92.10
2019-03-03T23:15:58.083Z,92.00
2019-03-03T23:18:48.637Z,91.90
2019-03-03T23:21:36.799Z,91.80
2019-03-03T23:24:48.832Z,91.70
2019-03-03T23:27:25.126Z,91.60
2019-03-03T23:30:01.464Z,91.40
2019-03-03T23:32:36.643Z,91.20
2019-03-03T23:35:12.163Z,91.10
2019-03-03T23:37:47.517Z,91.10
2019-03-03T23:40:22.945Z,90.80
2019-03-03T23:42:58.489Z,90.80
2019-03-03T23:45:33.590Z,90.70
2019-03-03T23:48:08.724Z,90.60
2019-03-03T23:50:44.092Z,90.40
2019-03-03T23:53:19.766Z,90.40
2019-03-03T23:55:54.789Z,90.10
2019-03-03T23:58:29.833Z,90.00
